sensor_id;sensor_type;location;lat;lon;timestamp;pressure;altitude;pressure_sealevel;temperature;humidity
63097;BME280;49185;42.320;23.198;2023-03-21T00:01:23;94708.28;;;6.56;67.64
63097;BME280;49185;42.320;23.198;2023-03-21T00:03:49;94709.06;;;6.45;68.75
63097;BME280;49185;42.320;23.198;2023-03-21T00:06:14;94712.00;;;6.55;68.36
63097;BME280;49185;42.320;23.198;2023-03-21T00:08:40;94713.25;;;6.34;69.11
63097;BME280;49185;42.320;23.198;2023-03-21T00:11:07;94698.63;;;6.80;68.26
63097;BME280;49185;42.320;23.198;2023-03-21T00:13:33;94705.88;;;6.85;66.96
63097;BME280;49185;42.320;23.198;2023-03-21T00:18:32;94699.88;;;6.47;68.40
63097;BME280;49185;42.320;23.198;2023-03-21T00:20:59;94704.97;;;6.12;69.48
63097;BME280;49185;42.320;23.198;2023-03-21T00:23:26;94707.94;;;6.83;66.53
63097;BME280;49185;42.320;23.198;2023-03-21T00:25:52;94707.91;;;6.71;67.10
63097;BME280;49185;42.320;23.198;2023-03-21T00:28:18;94708.47;;;7.03;66.07
63097;BME280;49185;42.320;23.198;2023-03-21T00:30:43;94710.78;;;6.81;66.27
63097;BME280;49185;42.320;23.198;2023-03-21T00:33:09;94711.78;;;6.38;67.98
63097;BME280;49185;42.320;23.198;2023-03-21T00:35:34;94713.91;;;6.30;68.59
63097;BME280;49185;42.320;23.198;2023-03-21T00:37:59;94712.38;;;6.40;68.80
63097;BME280;49185;42.320;23.198;2023-03-21T00:40:25;94721.00;;;6.47;68.35
63097;BME280;49185;42.320;23.198;2023-03-21T00:42:50;94721.28;;;6.58;67.51
63097;BME280;49185;42.320;23.198;2023-03-21T00:45:16;94718.34;;;7.08;65.42
63097;BME280;49185;42.320;23.198;2023-03-21T00:47:41;94715.63;;;7.27;64.57
63097;BME280;49185;42.320;23.198;2023-03-21T00:50:07;94713.47;;;7.47;64.21
63097;BME280;49185;42.320;23.198;2023-03-21T00:52:33;94710.75;;;7.00;65.91
63097;BME280;49185;42.320;23.198;2023-03-21T00:54:58;94709.38;;;7.09;65.10
63097;BME280;49185;42.320;23.198;2023-03-21T00:57:24;94707.00;;;6.77;66.09
63097;BME280;49185;42.320;23.198;2023-03-21T00:59:49;94714.28;;;6.33;67.02
63097;BME280;49185;42.320;23.198;2023-03-21T01:02:14;94706.97;;;6.17;68.52
63097;BME280;49185;42.320;23.198;2023-03-21T01:04:40;94702.50;;;6.66;66.79
63097;BME280;49185;42.320;23.198;2023-03-21T01:07:05;94706.56;;;6.50;66.41
63097;BME280;49185;42.320;23.198;2023-03-21T01:09:31;94704.84;;;6.25;67.37
63097;BME280;49185;42.320;23.198;2023-03-21T01:11:56;94702.72;;;6.46;67.30
63097;BME280;49185;42.320;23.198;2023-03-21T01:14:22;94709.00;;;6.33;68.15
63097;BME280;49185;42.320;23.198;2023-03-21T01:16:48;94708.94;;;6.21;68.44
63097;BME280;49185;42.320;23.198;2023-03-21T01:19:15;94695.13;;;6.38;68.19
63097;BME280;49185;42.320;23.198;2023-03-21T01:21:42;94697.94;;;6.55;66.77
63097;BME280;49185;42.320;23.198;2023-03-21T01:24:08;94693.72;;;6.65;67.04
63097;BME280;49185;42.320;23.198;2023-03-21T01:26:34;94697.63;;;6.63;66.69
63097;BME280;49185;42.320;23.198;2023-03-21T01:28:59;94688.56;;;6.71;67.11
63097;BME280;49185;42.320;23.198;2023-03-21T01:31:25;94693.50;;;7.09;65.74
63097;BME280;49185;42.320;23.198;2023-03-21T01:33:50;94687.72;;;6.89;65.81
63097;BME280;49185;42.320;23.198;2023-03-21T01:36:21;94688.56;;;7.13;65.24
63097;BME280;49185;42.320;23.198;2023-03-21T01:38:47;94692.94;;;6.65;66.39
63097;BME280;49185;42.320;23.198;2023-03-21T01:41:20;94689.94;;;6.61;67.36
63097;BME280;49185;42.320;23.198;2023-03-21T01:43:48;94695.50;;;7.14;65.45
63097;BME280;49185;42.320;23.198;2023-03-21T01:46:45;94692.50;;;6.38;67.23
63097;BME280;49185;42.320;23.198;2023-03-21T01:49:19;94684.81;;;5.99;69.51
63097;BME280;49185;42.320;23.198;2023-03-21T01:51:52;94679.19;;;5.89;70.22
63097;BME280;49185;42.320;23.198;2023-03-21T01:54:28;94673.50;;;5.92;70.56
63097;BME280;49185;42.320;23.198;2023-03-21T01:56:57;94670.63;;;5.94;70.39
63097;BME280;49185;42.320;23.198;2023-03-21T01:59:30;94664.13;;;5.96;69.37
63097;BME280;49185;42.320;23.198;2023-03-21T02:01:59;94667.72;;;6.02;69.73
63097;BME280;49185;42.320;23.198;2023-03-21T02:04:27;94663.16;;;6.09;69.49
63097;BME280;49185;42.320;23.198;2023-03-21T02:07:06;94660.06;;;6.12;69.13
63097;BME280;49185;42.320;23.198;2023-03-21T02:09:33;94653.44;;;6.40;68.30
63097;BME280;49185;42.320;23.198;2023-03-21T02:12:00;94654.44;;;6.69;67.40
63097;BME280;49185;42.320;23.198;2023-03-21T02:14:25;94655.28;;;6.21;68.50
63097;BME280;49185;42.320;23.198;2023-03-21T02:28:27;94665.72;;;6.16;68.99
63097;BME280;49185;42.320;23.198;2023-03-21T02:36:31;94673.72;;;5.72;70.45
63097;BME280;49185;42.320;23.198;2023-03-21T02:39:24;94687.25;;;5.57;71.28
63097;BME280;49185;42.320;23.198;2023-03-21T02:44:47;94687.00;;;4.58;76.45
63097;BME280;49185;42.320;23.198;2023-03-21T02:47:21;94679.63;;;4.35;77.50
63097;BME280;49185;42.320;23.198;2023-03-21T02:50:12;94691.47;;;4.19;78.52
63097;BME280;49185;42.320;23.198;2023-03-21T02:52:41;94695.31;;;4.55;77.89
63097;BME280;49185;42.320;23.198;2023-03-21T02:55:14;94694.56;;;4.48;77.62
63097;BME280;49185;42.320;23.198;2023-03-21T02:57:42;94694.41;;;4.43;78.43
63097;BME280;49185;42.320;23.198;2023-03-21T03:00:12;94690.84;;;5.19;75.67
63097;BME280;49185;42.320;23.198;2023-03-21T03:02:40;94686.38;;;5.20;75.03
63097;BME280;49185;42.320;23.198;2023-03-21T03:05:14;94684.28;;;5.28;73.62
63097;BME280;49185;42.320;23.198;2023-03-21T03:23:58;94675.69;;;4.83;75.52
63097;BME280;49185;42.320;23.198;2023-03-21T03:26:31;94671.28;;;5.27;74.14
63097;BME280;49185;42.320;23.198;2023-03-21T03:29:02;94667.13;;;5.19;73.56
63097;BME280;49185;42.320;23.198;2023-03-21T03:31:33;94675.16;;;4.99;73.86
63097;BME280;49185;42.320;23.198;2023-03-21T03:34:05;94675.03;;;4.62;75.26
63097;BME280;49185;42.320;23.198;2023-03-21T03:36:36;94683.97;;;4.61;75.35
63097;BME280;49185;42.320;23.198;2023-03-21T03:39:06;94676.34;;;4.46;75.89
63097;BME280;49185;42.320;23.198;2023-03-21T03:41:57;94677.56;;;4.44;76.27
63097;BME280;49185;42.320;23.198;2023-03-21T03:44:20;94675.16;;;4.42;75.71
63097;BME280;49185;42.320;23.198;2023-03-21T03:49:38;94672.03;;;4.20;76.64
63097;BME280;49185;42.320;23.198;2023-03-21T03:54:36;94673.59;;;4.28;76.74
63097;BME280;49185;42.320;23.198;2023-03-21T03:57:04;94667.25;;;4.42;76.41
63097;BME280;49185;42.320;23.198;2023-03-21T03:59:29;94666.13;;;4.56;75.79
63097;BME280;49185;42.320;23.198;2023-03-21T04:01:55;94657.56;;;4.68;75.08
63097;BME280;49185;42.320;23.198;2023-03-21T04:04:20;94657.66;;;4.54;75.32
63097;BME280;49185;42.320;23.198;2023-03-21T04:06:46;94651.56;;;4.54;75.36
63097;BME280;49185;42.320;23.198;2023-03-21T04:09:11;94650.81;;;4.47;75.83
63097;BME280;49185;42.320;23.198;2023-03-21T04:11:37;94658.94;;;4.45;75.89
63097;BME280;49185;42.320;23.198;2023-03-21T04:14:02;94651.59;;;4.79;74.69
63097;BME280;49185;42.320;23.198;2023-03-21T04:16:27;94650.56;;;5.30;72.04
63097;BME280;49185;42.320;23.198;2023-03-21T04:18:53;94642.97;;;5.41;71.70
63097;BME280;49185;42.320;23.198;2023-03-21T04:21:18;94649.41;;;5.26;71.80
63097;BME280;49185;42.320;23.198;2023-03-21T04:23:44;94658.44;;;5.12;72.27
63097;BME280;49185;42.320;23.198;2023-03-21T04:26:09;94657.31;;;5.01;72.60
63097;BME280;49185;42.320;23.198;2023-03-21T04:28:35;94649.56;;;4.81;72.98
63097;BME280;49185;42.320;23.198;2023-03-21T04:31:03;94657.09;;;5.03;72.52
63097;BME280;49185;42.320;23.198;2023-03-21T04:33:29;94659.84;;;4.89;72.57
63097;BME280;49185;42.320;23.198;2023-03-21T04:35:54;94652.41;;;4.80;73.25
63097;BME280;49185;42.320;23.198;2023-03-21T04:38:20;94650.47;;;4.68;73.69
63097;BME280;49185;42.320;23.198;2023-03-21T04:40:46;94657.41;;;5.13;72.48
63097;BME280;49185;42.320;23.198;2023-03-21T04:43:11;94654.75;;;4.94;73.05
63097;BME280;49185;42.320;23.198;2023-03-21T04:45:36;94654.50;;;4.71;74.30
63097;BME280;49185;42.320;23.198;2023-03-21T04:48:02;94650.88;;;4.65;75.07
63097;BME280;49185;42.320;23.198;2023-03-21T04:50:27;94655.16;;;4.66;75.18
63097;BME280;49185;42.320;23.198;2023-03-21T04:52:53;94650.59;;;4.80;74.65
63097;BME280;49185;42.320;23.198;2023-03-21T04:55:18;94659.72;;;4.78;74.79
63097;BME280;49185;42.320;23.198;2023-03-21T04:57:44;94657.91;;;4.78;75.10
63097;BME280;49185;42.320;23.198;2023-03-21T05:00:10;94661.19;;;4.73;75.02
63097;BME280;49185;42.320;23.198;2023-03-21T05:02:36;94661.13;;;4.80;74.56
63097;BME280;49185;42.320;23.198;2023-03-21T05:05:02;94655.41;;;4.83;74.38
63097;BME280;49185;42.320;23.198;2023-03-21T05:07:28;94652.44;;;5.05;74.14
63097;BME280;49185;42.320;23.198;2023-03-21T05:09:53;94649.47;;;5.38;72.98
63097;BME280;49185;42.320;23.198;2023-03-21T05:12:18;94652.59;;;5.10;73.95
63097;BME280;49185;42.320;23.198;2023-03-21T05:14:44;94658.19;;;4.63;76.32
63097;BME280;49185;42.320;23.198;2023-03-21T05:17:09;94657.34;;;4.37;77.84
63097;BME280;49185;42.320;23.198;2023-03-21T05:19:35;94656.59;;;4.62;77.20
63097;BME280;49185;42.320;23.198;2023-03-21T05:22:02;94651.31;;;4.94;75.17
63097;BME280;49185;42.320;23.198;2023-03-21T05:24:29;94651.91;;;4.96;75.31
63097;BME280;49185;42.320;23.198;2023-03-21T05:26:55;94648.44;;;5.21;74.31
63097;BME280;49185;42.320;23.198;2023-03-21T05:29:21;94638.72;;;5.40;73.60
63097;BME280;49185;42.320;23.198;2023-03-21T05:31:46;94642.50;;;6.06;71.35
63097;BME280;49185;42.320;23.198;2023-03-21T05:34:12;94640.47;;;7.04;66.65
63097;BME280;49185;42.320;23.198;2023-03-21T05:36:38;94637.59;;;6.94;66.76
63097;BME280;49185;42.320;23.198;2023-03-21T05:39:04;94627.22;;;6.92;66.58
63097;BME280;49185;42.320;23.198;2023-03-21T05:41:30;94630.59;;;6.99;68.08
63097;BME280;49185;42.320;23.198;2023-03-21T05:43:55;94628.09;;;8.04;64.13
63097;BME280;49185;42.320;23.198;2023-03-21T05:46:20;94637.34;;;9.05;59.67
63097;BME280;49185;42.320;23.198;2023-03-21T05:48:46;94644.50;;;9.04;58.62
63097;BME280;49185;42.320;23.198;2023-03-21T05:51:11;94649.97;;;8.40;61.25
63097;BME280;49185;42.320;23.198;2023-03-21T05:53:37;94640.88;;;9.44;58.44
63097;BME280;49185;42.320;23.198;2023-03-21T05:56:03;94639.50;;;9.42;58.92
63097;BME280;49185;42.320;23.198;2023-03-21T05:58:28;94643.34;;;8.26;61.39
63097;BME280;49185;42.320;23.198;2023-03-21T06:00:54;94648.06;;;7.71;64.11
63097;BME280;49185;42.320;23.198;2023-03-21T06:03:19;94651.44;;;7.67;64.00
63097;BME280;49185;42.320;23.198;2023-03-21T06:05:45;94652.56;;;7.23;66.22
63097;BME280;49185;42.320;23.198;2023-03-21T06:08:10;94660.28;;;7.25;67.27
63097;BME280;49185;42.320;23.198;2023-03-21T06:10:36;94657.97;;;7.17;68.00
63097;BME280;49185;42.320;23.198;2023-03-21T06:13:01;94656.13;;;7.65;66.92
63097;BME280;49185;42.320;23.198;2023-03-21T06:15:27;94656.53;;;8.78;63.14
63097;BME280;49185;42.320;23.198;2023-03-21T06:17:52;94657.03;;;8.92;61.81
63097;BME280;49185;42.320;23.198;2023-03-21T06:20:17;94664.44;;;10.19;59.41
63097;BME280;49185;42.320;23.198;2023-03-21T06:22:43;94664.94;;;10.16;59.01
63097;BME280;49185;42.320;23.198;2023-03-21T06:25:09;94668.88;;;9.35;62.20
63097;BME280;49185;42.320;23.198;2023-03-21T06:27:34;94660.59;;;11.03;57.73
63097;BME280;49185;42.320;23.198;2023-03-21T06:30:00;94664.88;;;10.77;57.49
63097;BME280;49185;42.320;23.198;2023-03-21T06:32:25;94662.69;;;9.85;59.84
63097;BME280;49185;42.320;23.198;2023-03-21T06:34:51;94675.22;;;9.51;59.76
63097;BME280;49185;42.320;23.198;2023-03-21T06:37:17;94672.13;;;9.76;59.41
63097;BME280;49185;42.320;23.198;2023-03-21T06:39:43;94665.69;;;11.10;55.84
63097;BME280;49185;42.320;23.198;2023-03-21T06:42:09;94651.97;;;11.23;54.34
63097;BME280;49185;42.320;23.198;2023-03-21T06:44:34;94653.06;;;10.95;55.59
63097;BME280;49185;42.320;23.198;2023-03-21T06:47:00;94649.59;;;11.64;52.25
63097;BME280;49185;42.320;23.198;2023-03-21T06:49:25;94642.34;;;11.22;53.60
63097;BME280;49185;42.320;23.198;2023-03-21T06:51:51;94637.84;;;11.60;51.74
63097;BME280;49185;42.320;23.198;2023-03-21T06:54:16;94646.78;;;12.39;49.40
63097;BME280;49185;42.320;23.198;2023-03-21T06:56:42;94640.94;;;12.42;49.15
63097;BME280;49185;42.320;23.198;2023-03-21T06:59:07;94634.38;;;12.07;50.60
63097;BME280;49185;42.320;23.198;2023-03-21T07:01:33;94632.31;;;12.20;50.29
63097;BME280;49185;42.320;23.198;2023-03-21T07:03:58;94636.13;;;12.44;48.91
63097;BME280;49185;42.320;23.198;2023-03-21T07:06:24;94639.00;;;12.22;49.71
63097;BME280;49185;42.320;23.198;2023-03-21T07:08:51;94635.78;;;11.72;50.92
63097;BME280;49185;42.320;23.198;2023-03-21T07:11:16;94635.41;;;12.75;49.67
63097;BME280;49185;42.320;23.198;2023-03-21T07:13:42;94633.03;;;12.88;48.16
63097;BME280;49185;42.320;23.198;2023-03-21T07:16:07;94633.34;;;13.23;48.37
63097;BME280;49185;42.320;23.198;2023-03-21T07:18:33;94631.16;;;13.86;47.00
63097;BME280;49185;42.320;23.198;2023-03-21T07:20:58;94622.56;;;13.90;47.33
63097;BME280;49185;42.320;23.198;2023-03-21T07:23:25;94642.44;;;13.42;47.76
63097;BME280;49185;42.320;23.198;2023-03-21T07:25:51;94638.31;;;14.01;45.38
63097;BME280;49185;42.320;23.198;2023-03-21T09:22:07;94567.41;;;21.22;31.67
63097;BME280;49185;42.320;23.198;2023-03-21T09:24:53;94569.78;;;21.50;31.06
63097;BME280;49185;42.320;23.198;2023-03-21T09:27:39;94579.91;;;19.46;34.00
63097;BME280;49185;42.320;23.198;2023-03-21T09:30:25;94582.16;;;18.07;37.38
63097;BME280;49185;42.320;23.198;2023-03-21T09:32:50;94572.06;;;18.90;37.35
63097;BME280;49185;42.320;23.198;2023-03-21T09:35:16;94570.41;;;19.03;37.56
63097;BME280;49185;42.320;23.198;2023-03-21T09:37:42;94574.19;;;18.15;37.17
63097;BME280;49185;42.320;23.198;2023-03-21T09:43:09;94568.41;;;18.72;37.36
63097;BME280;49185;42.320;23.198;2023-03-21T09:45:49;94563.53;;;17.63;37.21
63097;BME280;49185;42.320;23.198;2023-03-21T09:48:34;94559.53;;;18.72;34.74
63097;BME280;49185;42.320;23.198;2023-03-21T09:51:05;94562.28;;;19.40;34.26
63097;BME280;49185;42.320;23.198;2023-03-21T09:53:37;94568.88;;;19.33;33.62
63097;BME280;49185;42.320;23.198;2023-03-21T09:56:08;94557.38;;;20.13;33.00
63097;BME280;49185;42.320;23.198;2023-03-21T09:58:41;94557.19;;;20.01;32.12
63097;BME280;49185;42.320;23.198;2023-03-21T10:01:13;94547.84;;;20.07;31.87
63097;BME280;49185;42.320;23.198;2023-03-21T10:03:38;94539.44;;;20.08;32.33
63097;BME280;49185;42.320;23.198;2023-03-21T10:06:11;94541.84;;;19.79;32.27
63097;BME280;49185;42.320;23.198;2023-03-21T10:08:42;94549.88;;;19.70;31.89
63097;BME280;49185;42.320;23.198;2023-03-21T10:11:14;94546.78;;;19.54;31.72
63097;BME280;49185;42.320;23.198;2023-03-21T10:13:55;94551.00;;;18.92;34.24
63097;BME280;49185;42.320;23.198;2023-03-21T10:16:30;94550.56;;;19.44;33.72
63097;BME280;49185;42.320;23.198;2023-03-21T10:18:58;94548.19;;;19.20;33.49
63097;BME280;49185;42.320;23.198;2023-03-21T10:21:27;94549.47;;;19.00;33.50
63097;BME280;49185;42.320;23.198;2023-03-21T10:23:55;94540.31;;;19.95;32.92
63097;BME280;49185;42.320;23.198;2023-03-21T10:26:24;94534.38;;;19.76;33.00
63097;BME280;49185;42.320;23.198;2023-03-21T10:28:53;94527.34;;;20.06;31.39
63097;BME280;49185;42.320;23.198;2023-03-21T10:31:22;94521.94;;;20.06;33.35
63097;BME280;49185;42.320;23.198;2023-03-21T10:33:49;94524.63;;;20.90;30.34
63097;BME280;49185;42.320;23.198;2023-03-21T10:36:18;94525.41;;;20.73;31.76
63097;BME280;49185;42.320;23.198;2023-03-21T10:38:51;94521.22;;;21.28;29.50
63097;BME280;49185;42.320;23.198;2023-03-21T10:41:18;94514.59;;;19.89;31.01
63097;BME280;49185;42.320;23.198;2023-03-21T10:43:43;94520.16;;;21.02;31.99
63097;BME280;49185;42.320;23.198;2023-03-21T10:46:16;94519.50;;;21.88;28.41
63097;BME280;49185;42.320;23.198;2023-03-21T10:48:43;94504.41;;;21.78;28.42
63097;BME280;49185;42.320;23.198;2023-03-21T10:51:08;94496.56;;;20.16;30.51
63097;BME280;49185;42.320;23.198;2023-03-21T10:53:38;94499.13;;;21.26;29.48
63097;BME280;49185;42.320;23.198;2023-03-21T10:56:07;94508.13;;;19.36;32.25
63097;BME280;49185;42.320;23.198;2023-03-21T10:58:37;94511.53;;;19.50;31.03
63097;BME280;49185;42.320;23.198;2023-03-21T11:01:06;94504.31;;;20.08;30.88
63097;BME280;49185;42.320;23.198;2023-03-21T11:03:37;94494.81;;;20.28;30.25
63097;BME280;49185;42.320;23.198;2023-03-21T11:06:31;94493.38;;;20.14;31.25
63097;BME280;49185;42.320;23.198;2023-03-21T11:09:03;94493.44;;;21.01;29.90
63097;BME280;49185;42.320;23.198;2023-03-21T11:11:35;94492.28;;;20.32;30.11
63097;BME280;49185;42.320;23.198;2023-03-21T11:14:04;94490.09;;;19.45;31.31
63097;BME280;49185;42.320;23.198;2023-03-21T11:16:36;94482.66;;;19.91;32.58
63097;BME280;49185;42.320;23.198;2023-03-21T11:19:12;94476.31;;;19.56;33.53
63097;BME280;49185;42.320;23.198;2023-03-21T11:21:38;94473.75;;;18.88;31.94
63097;BME280;49185;42.320;23.198;2023-03-21T11:24:05;94477.44;;;19.23;32.42
63097;BME280;49185;42.320;23.198;2023-03-21T11:26:35;94476.53;;;19.68;32.33
63097;BME280;49185;42.320;23.198;2023-03-21T11:31:48;94463.81;;;18.97;30.03
63097;BME280;49185;42.320;23.198;2023-03-21T11:34:41;94458.34;;;18.66;31.42
63097;BME280;49185;42.320;23.198;2023-03-21T11:37:17;94458.38;;;18.52;31.44
63097;BME280;49185;42.320;23.198;2023-03-21T11:39:44;94455.88;;;18.55;32.99
63097;BME280;49185;42.320;23.198;2023-03-21T11:42:43;94458.53;;;19.95;32.20
63097;BME280;49185;42.320;23.198;2023-03-21T11:45:15;94442.72;;;20.37;31.45
63097;BME280;49185;42.320;23.198;2023-03-21T11:47:41;94442.19;;;20.08;30.24
63097;BME280;49185;42.320;23.198;2023-03-21T11:58:45;94443.47;;;20.20;30.48
63097;BME280;49185;42.320;23.198;2023-03-21T12:06:59;94430.41;;;18.62;29.33
63097;BME280;49185;42.320;23.198;2023-03-21T12:09:32;94432.06;;;18.94;31.54
63097;BME280;49185;42.320;23.198;2023-03-21T12:12:02;94424.31;;;18.70;29.29
63097;BME280;49185;42.320;23.198;2023-03-21T12:17:13;94421.72;;;20.42;29.98
63097;BME280;49185;42.320;23.198;2023-03-21T12:25:05;94412.31;;;19.47;31.06
63097;BME280;49185;42.320;23.198;2023-03-21T14:03:14;94368.13;;;15.86;39.48
63097;BME280;49185;42.320;23.198;2023-03-21T14:06:00;94372.13;;;15.88;38.89
63097;BME280;49185;42.320;23.198;2023-03-21T14:08:48;94368.97;;;16.00;38.66
63097;BME280;49185;42.320;23.198;2023-03-21T14:11:34;94373.63;;;15.94;38.18
63097;BME280;49185;42.320;23.198;2023-03-21T14:14:23;94379.44;;;15.83;38.69
63097;BME280;49185;42.320;23.198;2023-03-21T14:17:31;94379.81;;;15.76;39.94
63097;BME280;49185;42.320;23.198;2023-03-21T14:20:26;94374.66;;;15.80;42.20
63097;BME280;49185;42.320;23.198;2023-03-21T14:23:15;94375.28;;;15.28;45.39
63097;BME280;49185;42.320;23.198;2023-03-21T14:26:00;94381.06;;;15.16;46.15
63097;BME280;49185;42.320;23.198;2023-03-21T14:28:48;94379.59;;;15.05;46.33
63097;BME280;49185;42.320;23.198;2023-03-21T14:31:37;94372.25;;;14.87;47.68
63097;BME280;49185;42.320;23.198;2023-03-21T14:34:26;94375.84;;;14.77;47.85
63097;BME280;49185;42.320;23.198;2023-03-21T14:37:12;94376.28;;;14.60;49.87
63097;BME280;49185;42.320;23.198;2023-03-21T14:40:00;94376.22;;;14.65;51.30
63097;BME280;49185;42.320;23.198;2023-03-21T14:42:35;94374.09;;;14.33;52.19
63097;BME280;49185;42.320;23.198;2023-03-21T14:45:15;94371.75;;;14.21;51.36
63097;BME280;49185;42.320;23.198;2023-03-21T14:47:41;94377.13;;;14.21;51.48
63097;BME280;49185;42.320;23.198;2023-03-21T14:50:18;94371.91;;;14.35;51.77
63097;BME280;49185;42.320;23.198;2023-03-21T14:52:43;94368.78;;;14.28;52.11
63097;BME280;49185;42.320;23.198;2023-03-21T14:55:14;94374.31;;;14.02;52.53
63097;BME280;49185;42.320;23.198;2023-03-21T14:57:40;94371.44;;;14.28;51.67
63097;BME280;49185;42.320;23.198;2023-03-21T15:00:13;94370.81;;;14.07;52.03
63097;BME280;49185;42.320;23.198;2023-03-21T15:02:42;94378.25;;;14.15;52.38
63097;BME280;49185;42.320;23.198;2023-03-21T15:05:19;94371.41;;;14.33;50.97
63097;BME280;49185;42.320;23.198;2023-03-21T15:07:58;94372.13;;;14.09;51.23
63097;BME280;49185;42.320;23.198;2023-03-21T15:10:25;94368.84;;;14.17;50.93
63097;BME280;49185;42.320;23.198;2023-03-21T15:12:54;94372.03;;;14.19;50.90
63097;BME280;49185;42.320;23.198;2023-03-21T15:15:20;94380.28;;;14.28;52.00
63097;BME280;49185;42.320;23.198;2023-03-21T15:17:46;94374.47;;;13.81;53.50
63097;BME280;49185;42.320;23.198;2023-03-21T15:20:15;94381.56;;;13.52;55.58
63097;BME280;49185;42.320;23.198;2023-03-21T15:22:57;94389.66;;;13.26;57.90
63097;BME280;49185;42.320;23.198;2023-03-21T15:25:28;94385.72;;;13.08;58.76
63097;BME280;49185;42.320;23.198;2023-03-21T15:27:54;94392.72;;;12.99;60.31
63097;BME280;49185;42.320;23.198;2023-03-21T15:30:26;94389.47;;;13.12;56.07
63097;BME280;49185;42.320;23.198;2023-03-21T15:32:54;94385.81;;;12.87;54.35
63097;BME280;49185;42.320;23.198;2023-03-21T15:35:39;94390.59;;;12.85;54.13
63097;BME280;49185;42.320;23.198;2023-03-21T15:38:06;94391.97;;;12.72;56.14
63097;BME280;49185;42.320;23.198;2023-03-21T15:40:33;94395.16;;;12.80;56.57
63097;BME280;49185;42.320;23.198;2023-03-21T15:45:48;94397.53;;;12.81;58.94
63097;BME280;49185;42.320;23.198;2023-03-21T15:48:14;94394.88;;;12.76;59.90
63097;BME280;49185;42.320;23.198;2023-03-21T15:50:51;94390.53;;;13.11;58.79
63097;BME280;49185;42.320;23.198;2023-03-21T15:53:22;94397.78;;;12.95;60.45
63097;BME280;49185;42.320;23.198;2023-03-21T15:56:08;94392.25;;;12.20;65.94
63097;BME280;49185;42.320;23.198;2023-03-21T15:58:37;94397.00;;;11.71;69.38
63097;BME280;49185;42.320;23.198;2023-03-21T16:01:07;94398.53;;;11.52;70.38
63097;BME280;49185;42.320;23.198;2023-03-21T16:03:37;94392.22;;;11.84;66.67
63097;BME280;49185;42.320;23.198;2023-03-21T16:11:16;94383.75;;;12.43;63.51
63097;BME280;49185;42.320;23.198;2023-03-21T16:13:42;94382.13;;;12.27;63.94
63097;BME280;49185;42.320;23.198;2023-03-21T16:16:34;94385.50;;;11.61;69.46
63097;BME280;49185;42.320;23.198;2023-03-21T16:19:01;94399.09;;;11.64;58.46
63097;BME280;49185;42.320;23.198;2023-03-21T16:21:29;94389.34;;;11.90;56.13
63097;BME280;49185;42.320;23.198;2023-03-21T16:23:55;94402.53;;;11.44;63.63
63097;BME280;49185;42.320;23.198;2023-03-21T16:26:23;94387.03;;;11.36;58.15
63097;BME280;49185;42.320;23.198;2023-03-21T16:28:50;94383.56;;;11.30;57.64
63097;BME280;49185;42.320;23.198;2023-03-21T16:31:18;94385.72;;;11.38;57.41
63097;BME280;49185;42.320;23.198;2023-03-21T16:33:44;94373.25;;;11.59;55.60
63097;BME280;49185;42.320;23.198;2023-03-21T16:36:14;94377.88;;;11.06;60.09
63097;BME280;49185;42.320;23.198;2023-03-21T16:38:40;94374.59;;;11.62;54.97
63097;BME280;49185;42.320;23.198;2023-03-21T16:41:10;94376.53;;;12.03;57.46
63097;BME280;49185;42.320;23.198;2023-03-21T16:43:36;94377.00;;;11.69;59.75
63097;BME280;49185;42.320;23.198;2023-03-21T16:46:01;94378.72;;;11.17;63.60
63097;BME280;49185;42.320;23.198;2023-03-21T16:48:26;94382.88;;;10.97;66.48
63097;BME280;49185;42.320;23.198;2023-03-21T16:50:52;94393.34;;;11.09;67.91
63097;BME280;49185;42.320;23.198;2023-03-21T16:53:17;94389.47;;;11.48;67.37
63097;BME280;49185;42.320;23.198;2023-03-21T16:55:43;94391.34;;;11.52;67.09
63097;BME280;49185;42.320;23.198;2023-03-21T16:58:13;94388.22;;;10.97;70.40
63097;BME280;49185;42.320;23.198;2023-03-21T17:00:39;94395.53;;;10.70;72.69
63097;BME280;49185;42.320;23.198;2023-03-21T17:03:13;94389.63;;;10.68;72.61
63097;BME280;49185;42.320;23.198;2023-03-21T17:05:38;94401.97;;;10.79;73.17
63097;BME280;49185;42.320;23.198;2023-03-21T17:08:04;94393.81;;;11.01;73.46
63097;BME280;49185;42.320;23.198;2023-03-21T17:10:31;94398.91;;;10.60;73.46
63097;BME280;49185;42.320;23.198;2023-03-21T17:12:57;94390.78;;;10.34;75.37
63097;BME280;49185;42.320;23.198;2023-03-21T17:15:23;94415.06;;;10.16;78.53
63097;BME280;49185;42.320;23.198;2023-03-21T17:17:48;94409.44;;;10.12;77.65
63097;BME280;49185;42.320;23.198;2023-03-21T17:22:45;94405.75;;;10.88;74.07
63097;BME280;49185;42.320;23.198;2023-03-21T17:25:11;94397.59;;;11.15;72.88
63097;BME280;49185;42.320;23.198;2023-03-21T17:27:37;94404.53;;;11.16;72.75
63097;BME280;49185;42.320;23.198;2023-03-21T17:30:21;94406.78;;;10.82;74.51
63097;BME280;49185;42.320;23.198;2023-03-21T17:32:48;94416.47;;;10.23;77.35
63097;BME280;49185;42.320;23.198;2023-03-21T17:35:15;94416.44;;;9.91;79.52
63097;BME280;49185;42.320;23.198;2023-03-21T17:37:41;94421.69;;;9.59;83.07
63097;BME280;49185;42.320;23.198;2023-03-21T17:40:10;94422.06;;;9.45;84.62
63097;BME280;49185;42.320;23.198;2023-03-21T17:42:36;94428.69;;;9.43;84.58
63097;BME280;49185;42.320;23.198;2023-03-21T17:45:02;94433.50;;;9.46;81.61
63097;BME280;49185;42.320;23.198;2023-03-21T17:47:27;94440.63;;;9.40;82.81
63097;BME280;49185;42.320;23.198;2023-03-21T17:49:53;94438.16;;;9.34;86.42
63097;BME280;49185;42.320;23.198;2023-03-21T17:52:18;94444.94;;;9.24;88.10
63097;BME280;49185;42.320;23.198;2023-03-21T17:54:43;94436.69;;;9.21;87.65
63097;BME280;49185;42.320;23.198;2023-03-21T17:57:10;94438.00;;;9.67;83.39
63097;BME280;49185;42.320;23.198;2023-03-21T17:59:35;94427.59;;;9.93;79.49